Flight Track Log - Related Links

Times and Time Zones

All times are in EDT time to prevent confusion due to time zone crossing. See the UAL4533 flight status page for this flight to view local times or setup timezone preferences in your user account.

Time Position Orientation Groundspeed Altitude Reporting Facility
EDT Latitude Longitude Course Direction KTS MPH feet Rate Location/Type
Mon 10:33:56 AM 41.9167 -87.9000 180° South 164 189 3,300  Level Chicago TRACON
Mon 10:34:56 AM 41.8500 -87.9000 180° South 229 264 4,700 1,714 Climbing Chicago TRACON
Mon 10:35:34 AM 41.8175 -87.8992 179° South 230 265 6,100 1,800 Climbing Chicago Center
Mon 10:36:00 AM 41.5391 -87.8746 156° South  Level Estimated
Mon 10:36:36 AM 41.7506 -87.8847 171° South 249 287 7,700  Level Chicago Center
Mon 10:37:00 AM 41.4973 -87.7375 112° Southeast  Level FlightAware Approximate
Mon 10:37:38 AM 41.6869 -87.8231 144° Southeast 282 325 9,200  Level Chicago Center
Mon 10:38:00 AM 41.3866 -87.7311 169° South  Level Estimated
Mon 10:38:40 AM 41.6053 -87.7444 144° Southeast 299 344 11,200  Level Chicago Center
Mon 10:39:00 AM 41.2761 -87.7248 180° South  Level Estimated
Mon 10:39:42 AM 41.5256 -87.6978 156° South 315 362 12,800  Level Chicago Center
Mon 10:40:44 AM 41.4358 -87.6675 166° South 328 377 13,700 726 Climbing Chicago Center
Mon 10:41:46 AM 41.3375 -87.6342 166° South 355 409 14,300 823 Climbing Chicago Center
Mon 10:42:48 AM 41.2339 -87.6053 168° South 378 435 15,400 1,065 Climbing Chicago Center
Mon 10:43:50 AM 41.1289 -87.6092 182° South 377 434 16,500 1,113 Climbing Chicago Center
Mon 10:44:52 AM 41.0019 -87.5931 175° South 387 445 17,700 1,152 Climbing Chicago Center
Mon 10:45:55 AM 40.9003 -87.5450 160° South 392 451 18,900 1,056 Climbing Chicago Center
Mon 10:46:57 AM 40.7981 -87.4975 161° South 392 451 19,900 968 Climbing Chicago Center
Mon 10:47:59 AM 40.6950 -87.4464 159° South 397 457 20,900 1,016 Climbing Chicago Center
Mon 10:49:01 AM 40.5892 -87.3997 161° South 401 461 22,000 1,113 Climbing Chicago Center
Mon 10:50:03 AM 40.4853 -87.3517 161° South 399 459 23,200 1,258 Climbing Chicago Center
Mon 10:51:05 AM 40.3742 -87.2986 160° South 392 451 24,600 1,403 Climbing Chicago Center
Mon 10:52:07 AM 40.2736 -87.2503 160° South 388 447 26,100 1,597 Climbing Chicago Center
Mon 10:53:09 AM 40.1592 -87.1956 160° South 367 422 27,900 1,576 Climbing Chicago Center
Mon 10:53:46 AM 40.1011 -87.1692 161° South 361 415 28,700 1,091 Climbing Indianapolis Center
Mon 10:54:48 AM 40.0064 -87.1261 161° South 361 415 29,700 1,113 Climbing Indianapolis Center
Mon 10:55:50 AM 39.9211 -87.0625 150° Southeast 352 405 31,000 1,268 Climbing Indianapolis Center
Mon 10:56:51 AM 39.8375 -86.9919 147° Southeast 357 411 32,300 1,073 Climbing Indianapolis Center
Mon 10:57:53 AM 39.7572 -86.9233 147° Southeast 350 403 33,200 1,016 Climbing Indianapolis Center
Mon 10:58:55 AM 39.6603 -86.8444 148° Southeast 346 398 34,400 871 Climbing Indianapolis Center
Mon 10:59:57 AM 39.5817 -86.7789 147° Southeast 340 391 35,000 290 Climbing Indianapolis Center
Mon 11:00:59 AM 39.4978 -86.7083 147° Southeast 359 413 35,000  Level Indianapolis Center
Mon 11:02:00 AM 39.4089 -86.6344 147° Southeast 378 435 35,000  Level Indianapolis Center
Mon 11:03:02 AM 39.3150 -86.5572 148° Southeast 402 463 35,000  Level Indianapolis Center
Mon 11:05:06 AM 39.0956 -86.3761 147° Southeast 433 498 35,000  Level Indianapolis Center
Mon 11:06:07 AM 38.9919 -86.2919 148° Southeast 442 509 35,000  Level Indianapolis Center
Mon 11:07:09 AM 38.8822 -86.2031 148° Southeast 447 514 35,000  Level Indianapolis Center
Mon 11:08:11 AM 38.7792 -86.1192 148° Southeast 438 504 35,000  Level Indianapolis Center
Mon 11:09:12 AM 38.6803 -86.0381 147° Southeast 424 488 35,000  Level Indianapolis Center
Mon 11:10:14 AM 38.5808 -85.9583 148° Southeast 419 482 35,000  Level Indianapolis Center
Mon 11:11:15 AM 38.4825 -85.8792 148° Southeast 415 478 35,000  Level Indianapolis Center
Mon 11:12:17 AM 38.3839 -85.8017 148° Southeast 413 475 35,000  Level Indianapolis Center
Mon 11:13:18 AM 38.2878 -85.7242 148° Southeast 408 470 35,000  Level Indianapolis Center
Mon 11:14:20 AM 38.1908 -85.6453 147° Southeast 410 472 35,000  Level Indianapolis Center
Mon 11:15:22 AM 38.0889 -85.5758 152° Southeast 412 474 35,000  Level Indianapolis Center
Mon 11:16:23 AM 37.9539 -85.5378 167° South 412 474 35,000  Level Indianapolis Center
Mon 11:17:25 AM 37.8400 -85.5072 168° South 413 475 35,000  Level Indianapolis Center
Mon 11:18:27 AM 37.7225 -85.4733 167° South 410 472 35,000  Level Indianapolis Center
Mon 11:19:28 AM 37.6075 -85.4433 168° South 418 481 35,000  Level Indianapolis Center
Mon 11:20:30 AM 37.4906 -85.4142 169° South 425 489 35,000  Level Indianapolis Center
Mon 11:21:31 AM 37.3756 -85.3831 168° South 424 488 35,000  Level Indianapolis Center
Mon 11:22:33 AM 37.2589 -85.3522 168° South 427 491 35,000  Level Indianapolis Center
Mon 11:23:35 AM 37.1422 -85.3214 168° South 429 494 35,000  Level Indianapolis Center
Mon 11:24:36 AM 37.0178 -85.2881 168° South 428 493 35,000  Level Indianapolis Center
Mon 11:25:38 AM 36.8986 -85.2561 168° South 436 502 35,000  Level Indianapolis Center
Mon 11:26:40 AM 36.7797 -85.2258 168° South 435 501 35,000  Level Indianapolis Center
Mon 11:27:41 AM 36.6606 -85.1942 168° South 437 503 35,000  Level Indianapolis Center
Mon 11:28:43 AM 36.5181 -85.1575 168° South 437 503 35,000  Level Indianapolis Center
Mon 11:29:45 AM 36.3972 -85.1264 168° South 440 506 35,000  Level Indianapolis Center
Mon 11:30:47 AM 36.2772 -85.0950 168° South 442 509 35,000  Level Indianapolis Center
Mon 11:31:48 AM 36.1569 -85.0644 168° South 442 509 35,000 390 Level Indianapolis Center
Mon 11:32:50 AM 36.0394 -85.0350 169° South 436 502 35,800 488 Climbing Indianapolis Center
Mon 11:33:51 AM 35.9250 -85.0528 187° South 428 493 36,000 98 Climbing Indianapolis Center
Mon 11:34:53 AM 35.8064 -85.0931 195° South 435 501 36,000  Level Indianapolis Center
Mon 11:35:54 AM 35.6703 -85.1386 195° South 439 505 36,000  Level Indianapolis Center
Mon 11:36:55 AM 35.5461 -85.1822 196° South 444 511 36,000  Level Atlanta Center
Mon 11:37:55 AM 35.4289 -85.2214 195° South 444 511 36,000  Level Atlanta Center
Mon 11:38:55 AM 35.3158 -85.2581 195° South 433 498 36,000  Level Atlanta Center
Mon 11:39:55 AM 35.2028 -85.2969 196° South 433 498 36,000  Level Atlanta Center
Mon 11:40:55 AM 35.0919 -85.3333 195° South 428 493 36,000  Level Atlanta Center
Mon 11:41:55 AM 34.9850 -85.3697 196° South 417 480 36,000  Level Atlanta Center
Mon 11:42:55 AM 34.8719 -85.4083 196° South 417 480 36,000  Level Atlanta Center
Mon 11:43:55 AM 34.7567 -85.4444 194° South 417 480 36,000  Level Atlanta Center
Mon 11:44:55 AM 34.6414 -85.4831 195° South 422 486 36,000  Level Atlanta Center
Mon 11:45:55 AM 34.5283 -85.5239 197° South 422 486 36,000  Level Atlanta Center
Mon 11:46:55 AM 34.4131 -85.5597 194° South 422 486 36,000  Level Atlanta Center
Mon 11:47:55 AM 34.2958 -85.5978 195° South 428 493 36,000  Level Atlanta Center
Mon 11:48:55 AM 34.1764 -85.6358 195° South 433 498 36,000  Level Atlanta Center
Mon 11:49:55 AM 34.0611 -85.6761 196° South 438 504 36,000  Level Atlanta Center
Mon 11:50:55 AM 33.9436 -85.7139 195° South 431 496 36,000  Level Atlanta Center
Mon 11:51:55 AM 33.8261 -85.7492 194° South 431 496 36,000  Level Atlanta Center
Mon 11:52:55 AM 33.7131 -85.7894 197° South 436 502 36,000  Level Atlanta Center
Mon 11:53:55 AM 33.5936 -85.8194 192° South 442 509 36,000  Level Atlanta Center
Mon 11:54:55 AM 33.4783 -85.8569 195° South 437 503 36,000  Level Atlanta Center
Mon 11:55:55 AM 33.3608 -85.8917 194° South 437 503 36,000  Level Atlanta Center
Mon 11:56:55 AM 33.2475 -85.9317 196° South 437 503 36,000  Level Atlanta Center
Mon 11:57:55 AM 33.1281 -85.9661 194° South 437 503 36,000  Level Atlanta Center
Mon 11:58:55 AM 33.0083 -86.0106 197° South 442 509 36,000  Level Atlanta Center
Mon 11:59:55 AM 32.8847 -86.0425 192° South 442 509 36,000  Level Atlanta Center
Mon 12:00:55 PM 32.7608 -86.0842 196° South 452 520 36,000  Level Atlanta Center
Mon 12:01:55 PM 32.6369 -86.1231 195° South 457 526 36,000  Level Atlanta Center
Mon 12:02:55 PM 32.5153 -86.1622 195° South 457 526 36,000 -150 Level Atlanta Center
Mon 12:03:55 PM 32.3850 -86.2033 195° South 471 542 35,700 -1,154 Descending Atlanta Center
Mon 12:10:43 PM 31.5758 -86.4528 195° South 458 527 27,000 -1,397 Descending Jacksonville Center
Mon 12:11:43 PM 31.4578 -86.4897 195° South 463 533 24,800 -1,500 Descending Jacksonville Center
Mon 12:12:43 PM 31.3442 -86.5242 195° South 442 509 24,000 -450 Descending Jacksonville Center
Mon 12:13:43 PM 31.2464 -86.5883 209° Southwest 428 493 23,900 -200 Descending Jacksonville Center
Mon 12:14:43 PM 31.1764 -86.6925 232° Southwest 400 460 23,600 -1,150 Descending Jacksonville Center
Mon 12:15:43 PM 31.1042 -86.8061 233° Southwest 414 476 21,600 -2,400 Descending Jacksonville Center
Mon 12:16:43 PM 30.9900 -86.8472 197° South 397 457 18,800 -2,250 Descending Jacksonville Center
Mon 12:17:43 PM 30.8806 -86.8742 192° South 390 449 17,100 -2,043 Descending Jacksonville Center
Mon 12:18:17 PM 30.8472 -86.9431 241° Southwest 382 440 15,600 -1,851 Descending Jacksonville Center
Mon 12:19:17 PM 30.8433 -87.0589 268° West 341 392 14,200 -2,087 Descending Jacksonville Center
Mon 12:20:12 PM 30.8381 -87.1603 267° West 331 381 11,600 -2,721 Descending Jacksonville Center
Mon 12:20:43 PM 30.8181 -87.1956 237° Southwest 325 374 10,300 -1,254 Descending Jacksonville Center
Mon 12:21:19 PM 30.7656 -87.2078 191° South 293 337 10,200 -882 Descending Jacksonville Center
Mon 12:22:25 PM 30.6939 -87.1658 153° Southeast 247 284 8,800 -1,875 Descending Jacksonville Center
Mon 12:23:43 PM 30.6142 -87.1117 150° Southeast 235 270 5,700 -2,391 Descending Jacksonville Center
Mon 12:24:33 PM 30.5633 -87.0731 147° Southeast 285 328 3,700 -1,761 Descending Jacksonville Center
Mon 12:25:15 PM 30.5422 -87.0144 113° Southeast 266 306 3,000 -1,113 Descending Jacksonville Center
Mon 12:26:10 PM 30.4983 -87.0197 186° South 199 229 1,900 -886 Descending Jacksonville Center
Mon 12:26:43 PM 30.4842 -87.0625 249° West 162 186 1,700  Descending Jacksonville Center
Mon 12:27:17 PM 30.4897 -87.0892 284° West 190 219 1,900 -255 Climbing Jacksonville Center
Mon 12:28:17 PM 30.4842 -87.1275 260° West 89 102 1,300 -694 Descending Jacksonville Center
Mon 12:29:18 PM 30.4747 -87.1656 254° West 112 129 500 259 Descending Jacksonville Center
Mon 12:30:13 PM 30.4753 -87.2092 271° West 192 221 1,800 1,181 Climbing Jacksonville Center
Mon 12:31:25 PM 30.4725 -87.2908 268° West 200 230 3,000 1,000 Climbing Jacksonville Center

Login

Don't have an account? Register now (free) for customized features, flight alerts, and more!